createdAt,value
2018-10-06T00:02:08.414Z,80.48
2018-10-06T00:04:20.619Z,80.10
2018-10-06T00:06:32.869Z,79.36
2018-10-06T00:08:45.215Z,79.18
2018-10-06T00:10:57.418Z,79.18
2018-10-06T00:13:09.622Z,79.43
2018-10-06T00:15:21.818Z,78.97
2018-10-06T00:17:34.026Z,79.82
2018-10-06T00:19:46.227Z,79.76
2018-10-06T00:21:58.463Z,79.38
2018-10-06T00:24:10.640Z,79.95
2018-10-06T00:26:22.847Z,79.97
2018-10-06T00:28:35.075Z,79.45
2018-10-06T00:30:47.282Z,79.42
2018-10-06T00:32:59.473Z,79.88
2018-10-06T00:35:11.673Z,79.07
2018-10-06T00:37:23.912Z,80.12
2018-10-06T00:39:36.091Z,80.24
2018-10-06T00:41:48.285Z,80.16
2018-10-06T00:44:00.511Z,80.67
2018-10-06T00:46:12.690Z,79.61
2018-10-06T00:48:24.910Z,79.98
2018-10-06T00:50:37.137Z,80.01
2018-10-06T00:52:49.497Z,80.22
2018-10-06T00:55:01.766Z,79.97
2018-10-06T00:57:13.959Z,79.48
2018-10-06T00:59:26.182Z,79.65
2018-10-06T01:01:38.374Z,80.57
2018-10-06T01:03:50.535Z,80.58
2018-10-06T01:06:02.770Z,80.12
2018-10-06T01:08:14.972Z,80.52
2018-10-06T01:10:27.230Z,80.26
2018-10-06T01:12:39.442Z,79.74
2018-10-06T01:14:51.674Z,80.53
2018-10-06T01:17:03.894Z,80.11
2018-10-06T01:19:16.123Z,80.71
2018-10-06T01:21:28.318Z,79.71
2018-10-06T01:23:40.533Z,80.11
2018-10-06T01:25:52.774Z,79.80
2018-10-06T01:28:04.980Z,80.22
2018-10-06T01:30:17.175Z,80.21
2018-10-06T01:32:29.412Z,79.90
2018-10-06T01:34:41.689Z,79.93
2018-10-06T01:36:53.873Z,79.75
2018-10-06T01:39:06.600Z,79.47
2018-10-06T01:41:18.829Z,80.32
2018-10-06T01:43:31.127Z,80.24
2018-10-06T01:45:43.524Z,80.11
2018-10-06T01:47:55.719Z,80.82
2018-10-06T01:50:07.960Z,80.53
2018-10-06T01:52:20.188Z,80.84
2018-10-06T01:54:32.399Z,81.25
2018-10-06T01:56:44.583Z,80.60
2018-10-06T01:58:56.809Z,81.42
2018-10-06T02:01:08.991Z,81.28
2018-10-06T02:03:21.209Z,81.22
2018-10-06T02:05:33.387Z,80.27
2018-10-06T02:07:45.639Z,80.36
2018-10-06T02:09:57.817Z,80.21
2018-10-06T02:12:10.023Z,80.94
2018-10-06T02:14:22.242Z,80.18
2018-10-06T02:16:34.475Z,80.58
2018-10-06T02:18:46.710Z,80.43
2018-10-06T02:20:58.909Z,81.10
2018-10-06T02:23:11.087Z,81.13
2018-10-06T02:25:23.309Z,81.42
2018-10-06T02:27:35.515Z,81.27
2018-10-06T02:29:47.694Z,81.72
2018-10-06T02:31:59.882Z,81.49
2018-10-06T02:34:12.107Z,80.99
2018-10-06T02:36:24.335Z,82.16
2018-10-06T02:38:36.611Z,81.22
2018-10-06T02:40:48.787Z,81.32
2018-10-06T02:43:01.043Z,81.67
2018-10-06T02:45:13.248Z,81.99
2018-10-06T02:47:25.448Z,81.79
2018-10-06T02:49:37.663Z,84.92
2018-10-06T02:51:49.858Z,85.16
2018-10-06T02:54:02.039Z,85.88
2018-10-06T02:56:14.250Z,86.24
2018-10-06T02:58:26.473Z,85.99
2018-10-06T03:00:38.787Z,85.33
2018-10-06T03:02:51.011Z,84.78
2018-10-06T03:05:03.255Z,85.10
2018-10-06T03:07:15.471Z,84.40
2018-10-06T03:09:27.627Z,84.22
2018-10-06T03:11:39.852Z,83.63
2018-10-06T03:13:52.032Z,83.48
2018-10-06T03:16:04.256Z,82.99
2018-10-06T03:18:16.470Z,81.58
2018-10-06T03:20:28.662Z,82.40
2018-10-06T03:22:40.861Z,82.09
2018-10-06T03:24:53.052Z,81.72
2018-10-06T03:27:05.276Z,82.30
2018-10-06T03:29:17.477Z,81.43
2018-10-06T03:31:29.686Z,81.65
2018-10-06T03:33:41.921Z,82.25
2018-10-06T03:35:54.143Z,81.66
2018-10-06T03:38:06.439Z,81.30
2018-10-06T03:40:18.705Z,81.43
2018-10-06T03:42:30.956Z,81.14
2018-10-06T03:44:43.165Z,81.83
2018-10-06T03:46:55.421Z,81.39
2018-10-06T03:49:07.845Z,81.65
2018-10-06T03:51:20.072Z,80.83
2018-10-06T03:53:32.262Z,80.78
2018-10-06T03:55:44.498Z,81.18
2018-10-06T03:57:56.682Z,81.08
2018-10-06T04:00:08.959Z,81.35
2018-10-06T04:02:21.167Z,80.76
2018-10-06T04:04:33.380Z,81.37
2018-10-06T04:06:45.591Z,82.05
2018-10-06T04:08:58.463Z,81.35
2018-10-06T04:11:10.690Z,82.41
2018-10-06T04:13:22.894Z,82.41
2018-10-06T04:15:35.068Z,83.15
2018-10-06T04:17:47.308Z,84.39
2018-10-06T04:19:59.545Z,84.21
2018-10-06T04:22:11.722Z,83.70
2018-10-06T04:24:23.967Z,84.53
2018-10-06T04:26:36.190Z,84.11
2018-10-06T04:28:48.398Z,83.80
2018-10-06T04:31:00.591Z,82.41
2018-10-06T04:33:12.827Z,82.47
2018-10-06T04:35:25.043Z,82.80
2018-10-06T04:37:37.250Z,83.03
2018-10-06T04:39:49.491Z,83.86
2018-10-06T04:42:01.726Z,83.31
2018-10-06T04:44:13.914Z,82.76
2018-10-06T04:46:26.139Z,82.75
2018-10-06T04:48:38.364Z,83.26
2018-10-06T04:50:50.583Z,82.59
2018-10-06T04:53:02.807Z,82.29
2018-10-06T04:55:15.021Z,82.85
2018-10-06T04:57:27.556Z,82.64
2018-10-06T04:59:39.850Z,82.29
2018-10-06T05:01:52.052Z,83.01
2018-10-06T05:04:04.286Z,82.12
2018-10-06T05:06:16.491Z,82.82
2018-10-06T05:08:28.696Z,83.25
2018-10-06T05:10:40.923Z,82.20
2018-10-06T05:12:53.120Z,81.67
2018-10-06T05:15:05.395Z,82.28
2018-10-06T05:17:17.572Z,81.39
2018-10-06T05:19:29.783Z,81.08
2018-10-06T05:21:42.018Z,81.01
2018-10-06T05:23:54.476Z,81.95
2018-10-06T05:26:06.870Z,82.01
2018-10-06T05:28:19.083Z,82.60
2018-10-06T05:30:31.263Z,81.86
2018-10-06T05:32:43.445Z,82.01
2018-10-06T05:34:55.650Z,83.96
2018-10-06T05:37:07.814Z,84.46
2018-10-06T05:39:20.035Z,85.43
2018-10-06T05:41:32.271Z,84.73
2018-10-06T05:43:44.515Z,85.53
2018-10-06T05:45:56.775Z,85.20
2018-10-06T05:48:08.946Z,84.80
2018-10-06T05:50:21.191Z,84.87
2018-10-06T05:52:33.444Z,83.82
2018-10-06T05:54:45.648Z,83.49
2018-10-06T05:56:57.875Z,83.75
2018-10-06T05:59:10.148Z,83.76
2018-10-06T06:01:22.291Z,83.56
2018-10-06T06:03:34.491Z,83.36
2018-10-06T06:05:46.714Z,83.13
2018-10-06T06:07:58.921Z,82.93
2018-10-06T06:10:11.642Z,82.16
2018-10-06T06:12:23.888Z,83.05
2018-10-06T06:14:36.101Z,82.19
2018-10-06T06:16:48.343Z,82.85
2018-10-06T06:19:00.578Z,82.57
2018-10-06T06:21:12.808Z,82.43
2018-10-06T06:23:25.051Z,81.56
2018-10-06T06:25:37.242Z,81.35
2018-10-06T06:27:49.447Z,81.99
2018-10-06T06:30:01.698Z,80.78
2018-10-06T06:32:13.942Z,80.78
2018-10-06T06:34:26.129Z,81.03
2018-10-06T06:36:38.408Z,81.42
2018-10-06T06:38:50.633Z,80.39
2018-10-06T06:41:02.899Z,81.19
2018-10-06T06:43:15.168Z,80.34
2018-10-06T06:45:27.375Z,80.76
2018-10-06T06:47:39.871Z,79.95
2018-10-06T06:49:52.071Z,79.87
2018-10-06T06:52:04.663Z,80.10
2018-10-06T06:54:16.888Z,78.45
2018-10-06T06:56:29.074Z,76.46
2018-10-06T06:58:41.391Z,75.43
2018-10-06T07:00:53.577Z,74.03
2018-10-06T07:03:05.795Z,74.28
2018-10-06T07:05:22.608Z,73.17
2018-10-06T07:07:34.851Z,71.89
2018-10-06T07:09:47.046Z,71.00
2018-10-06T07:11:59.234Z,69.35
2018-10-06T07:14:11.495Z,69.15
2018-10-06T07:16:23.679Z,68.52
2018-10-06T07:18:36.310Z,66.71
2018-10-06T07:20:48.463Z,66.30
2018-10-06T07:23:00.669Z,66.75
2018-10-06T07:25:12.926Z,66.03
2018-10-06T07:27:25.106Z,63.20
2018-10-06T07:29:37.420Z,62.33
2018-10-06T07:31:49.630Z,62.31
2018-10-06T07:34:01.903Z,62.74
2018-10-06T07:36:14.105Z,62.47
2018-10-06T07:38:26.288Z,61.88
2018-10-06T07:40:38.518Z,61.34
2018-10-06T07:42:50.729Z,61.00
2018-10-06T07:45:03.127Z,61.15
2018-10-06T07:47:15.218Z,61.82
2018-10-06T07:49:27.446Z,62.06
2018-10-06T07:51:39.690Z,63.39
2018-10-06T07:53:51.870Z,62.88
2018-10-06T07:56:04.172Z,63.02
2018-10-06T07:58:16.393Z,61.15
2018-10-06T08:00:28.858Z,62.24
2018-10-06T08:02:41.070Z,61.78
2018-10-06T08:04:53.259Z,61.99
2018-10-06T08:07:05.641Z,61.09
2018-10-06T08:09:17.817Z,61.56
2018-10-06T08:11:30.052Z,61.51
2018-10-06T08:13:42.299Z,62.96
2018-10-06T08:15:54.534Z,61.33
2018-10-06T08:18:06.940Z,61.55
2018-10-06T08:20:19.179Z,61.34
2018-10-06T08:22:31.391Z,62.32
2018-10-06T08:24:43.665Z,60.29
2018-10-06T08:26:55.898Z,60.56
2018-10-06T08:29:08.131Z,60.73
2018-10-06T08:31:20.363Z,60.49
2018-10-06T08:33:32.595Z,60.53
2018-10-06T08:35:44.829Z,59.44
2018-10-06T08:37:57.130Z,59.01
2018-10-06T08:40:09.342Z,60.74
2018-10-06T08:42:21.591Z,58.39
2018-10-06T08:44:33.795Z,57.18
2018-10-06T08:46:46.014Z,57.01
2018-10-06T08:48:58.264Z,56.69
2018-10-06T08:51:10.539Z,56.22
2018-10-06T08:53:22.868Z,54.68
2018-10-06T08:55:35.079Z,54.35
2018-10-06T08:57:47.339Z,54.16
2018-10-06T08:59:59.573Z,54.58
2018-10-06T09:02:11.847Z,54.21
2018-10-06T09:04:24.167Z,53.27
2018-10-06T09:06:36.312Z,54.59
2018-10-06T09:08:48.612Z,52.47
2018-10-06T09:11:00.962Z,50.75
2018-10-06T09:13:13.164Z,46.97
2018-10-06T09:15:25.391Z,45.18
2018-10-06T09:17:37.772Z,45.19
2018-10-06T09:19:49.998Z,43.73
2018-10-06T09:22:02.232Z,44.48
2018-10-06T09:24:14.451Z,44.82
2018-10-06T09:26:26.656Z,43.02
2018-10-06T09:28:38.911Z,43.16
2018-10-06T09:30:51.135Z,43.94
2018-10-06T09:33:03.355Z,44.14
2018-10-06T09:35:15.603Z,42.60
2018-10-06T09:37:27.863Z,39.88
2018-10-06T09:39:40.095Z,39.85
2018-10-06T09:41:52.323Z,39.16
2018-10-06T09:44:04.543Z,40.58
2018-10-06T09:46:16.786Z,40.66
2018-10-06T09:48:28.992Z,41.04
2018-10-06T09:50:41.211Z,41.00
2018-10-06T09:52:53.490Z,41.89
2018-10-06T09:55:05.733Z,42.59
2018-10-06T09:57:17.971Z,43.14
2018-10-06T09:59:30.233Z,43.53
2018-10-06T10:01:48.053Z,44.80
2018-10-06T10:04:05.940Z,44.78
2018-10-06T10:06:18.138Z,44.73
2018-10-06T10:08:30.347Z,45.67
2018-10-06T10:10:42.604Z,44.91
2018-10-06T10:12:54.840Z,44.30
2018-10-06T10:15:07.112Z,45.19
2018-10-06T10:17:19.491Z,45.38
2018-10-06T10:19:31.582Z,44.34
2018-10-06T10:21:43.883Z,46.67
2018-10-06T10:23:56.113Z,45.13
2018-10-06T10:26:08.275Z,44.34
2018-10-06T10:28:20.571Z,45.04
2018-10-06T10:30:32.772Z,47.01
2018-10-06T10:32:45.335Z,44.24
2018-10-06T10:34:57.828Z,44.52
2018-10-06T10:37:10.114Z,43.17
2018-10-06T10:39:22.390Z,42.59
2018-10-06T10:41:34.699Z,44.10
2018-10-06T10:43:46.915Z,42.04
2018-10-06T10:45:59.128Z,43.08
2018-10-06T10:48:11.386Z,43.13
2018-10-06T10:50:23.624Z,42.10
2018-10-06T10:52:35.933Z,42.67
2018-10-06T10:54:48.246Z,43.26
2018-10-06T10:57:00.504Z,43.65
2018-10-06T10:59:12.748Z,44.07
2018-10-06T11:01:24.927Z,43.13
2018-10-06T11:03:37.268Z,43.41
2018-10-06T11:05:49.510Z,41.88
2018-10-06T11:08:01.748Z,42.67
2018-10-06T11:10:13.991Z,43.60
2018-10-06T11:12:26.224Z,42.77
2018-10-06T11:14:38.448Z,40.11
2018-10-06T11:16:50.675Z,40.25
2018-10-06T11:19:03.082Z,40.49
2018-10-06T11:21:15.315Z,40.88
2018-10-06T11:23:27.526Z,41.29
2018-10-06T11:25:39.785Z,41.01
2018-10-06T11:27:51.973Z,41.07
2018-10-06T11:30:04.265Z,42.09
2018-10-06T11:32:16.474Z,40.58
2018-10-06T11:34:28.700Z,42.00
2018-10-06T11:36:40.913Z,41.03
2018-10-06T11:38:53.138Z,40.15
2018-10-06T11:41:05.366Z,41.13
2018-10-06T11:43:17.662Z,41.43
2018-10-06T11:45:29.868Z,41.59
2018-10-06T11:47:42.105Z,41.25
2018-10-06T11:49:54.332Z,41.38
2018-10-06T11:52:06.884Z,41.22
2018-10-06T11:54:19.051Z,41.11
2018-10-06T11:56:31.304Z,41.33
2018-10-06T11:58:43.599Z,40.97
2018-10-06T12:00:55.829Z,42.04
2018-10-06T12:03:08.076Z,41.81
2018-10-06T12:05:20.315Z,43.13
2018-10-06T12:07:32.574Z,42.77
2018-10-06T12:09:44.841Z,42.90
2018-10-06T12:11:57.041Z,42.36
2018-10-06T12:14:09.315Z,44.45
2018-10-06T12:16:21.538Z,43.17
2018-10-06T12:18:33.769Z,43.53
2018-10-06T12:20:45.996Z,43.10
2018-10-06T12:22:58.219Z,42.82
2018-10-06T12:25:10.475Z,44.42
2018-10-06T12:27:22.674Z,43.86
2018-10-06T12:29:34.887Z,44.30
2018-10-06T12:31:47.150Z,44.51
2018-10-06T12:33:59.387Z,44.39
2018-10-06T12:36:11.639Z,44.79
2018-10-06T12:38:23.881Z,45.44
2018-10-06T12:40:36.078Z,44.88
2018-10-06T12:42:48.346Z,45.56
2018-10-06T12:45:00.567Z,44.99
2018-10-06T12:47:13.118Z,44.73
2018-10-06T12:49:25.378Z,45.65
2018-10-06T12:51:37.649Z,45.52
2018-10-06T12:53:49.903Z,45.49
2018-10-06T12:56:02.131Z,45.48
2018-10-06T12:58:14.371Z,45.84
2018-10-06T13:00:26.585Z,45.49
2018-10-06T13:02:38.859Z,45.31
2018-10-06T13:04:51.058Z,45.92
2018-10-06T13:07:03.305Z,46.05
2018-10-06T13:09:15.565Z,46.23
2018-10-06T13:11:27.799Z,45.50
2018-10-06T13:13:39.998Z,46.24
2018-10-06T13:15:52.270Z,45.39
2018-10-06T13:18:04.538Z,45.53
2018-10-06T13:20:16.775Z,45.42
2018-10-06T13:22:29.039Z,45.02
2018-10-06T13:24:41.295Z,45.13
2018-10-06T13:26:53.524Z,45.32
2018-10-06T13:29:05.733Z,45.24
2018-10-06T13:31:18.027Z,44.99
2018-10-06T13:33:30.289Z,44.69
2018-10-06T13:35:42.583Z,43.74
2018-10-06T13:37:54.828Z,44.49
2018-10-06T13:40:07.105Z,44.66
2018-10-06T13:42:19.337Z,45.81
2018-10-06T13:44:31.615Z,46.16
2018-10-06T13:46:43.850Z,44.59
2018-10-06T13:48:56.138Z,44.50
2018-10-06T13:51:08.472Z,44.86
2018-10-06T13:53:20.732Z,46.00
2018-10-06T13:55:32.960Z,44.86
2018-10-06T13:57:45.240Z,46.32
2018-10-06T13:59:57.463Z,46.13
2018-10-06T14:02:09.667Z,45.61
2018-10-06T14:04:21.891Z,45.41
2018-10-06T14:06:34.139Z,45.41
2018-10-06T14:08:46.388Z,46.00
2018-10-06T14:10:58.640Z,45.40
2018-10-06T14:13:10.867Z,46.07
2018-10-06T14:15:23.100Z,46.13
2018-10-06T14:17:35.379Z,45.38
2018-10-06T14:19:47.600Z,46.14
2018-10-06T14:21:59.818Z,46.65
2018-10-06T14:24:12.055Z,46.64
2018-10-06T14:26:24.365Z,45.45
2018-10-06T14:28:36.603Z,46.49
2018-10-06T14:30:48.832Z,46.07
2018-10-06T14:33:01.047Z,46.46
2018-10-06T14:35:13.691Z,47.83
2018-10-06T14:37:25.967Z,47.22
2018-10-06T14:39:38.263Z,47.19
2018-10-06T14:41:50.580Z,48.66
2018-10-06T14:44:02.873Z,47.26
2018-10-06T14:46:15.231Z,46.50
2018-10-06T14:48:27.439Z,46.49
2018-10-06T14:50:41.577Z,47.00
2018-10-06T14:52:53.986Z,47.72
2018-10-06T14:55:07.354Z,47.38
2018-10-06T14:57:19.663Z,46.72
2018-10-06T14:59:31.879Z,46.65
2018-10-06T15:01:44.120Z,46.39
2018-10-06T15:03:56.360Z,46.51
2018-10-06T15:06:08.551Z,47.01
2018-10-06T15:08:20.767Z,47.32
2018-10-06T15:10:32.979Z,46.71
2018-10-06T15:12:45.232Z,47.67
2018-10-06T15:14:57.616Z,47.11
2018-10-06T15:19:33.654Z,48.18
2018-10-06T15:21:45.941Z,48.36
2018-10-06T15:23:58.209Z,47.95
2018-10-06T15:26:10.483Z,48.20
2018-10-06T15:28:22.743Z,48.83
2018-10-06T15:30:35.008Z,48.57
2018-10-06T15:32:47.221Z,49.29
2018-10-06T15:37:23.840Z,50.15
2018-10-06T15:39:36.097Z,50.59
2018-10-06T15:41:48.352Z,49.74
2018-10-06T15:44:01.266Z,49.84
2018-10-06T15:46:13.496Z,49.12
2018-10-06T15:48:25.735Z,51.44
2018-10-06T15:50:37.972Z,52.81
2018-10-06T15:52:50.227Z,54.88
2018-10-06T15:55:02.545Z,55.52
2018-10-06T15:57:14.813Z,55.63
2018-10-06T15:59:27.086Z,56.12
2018-10-06T16:01:39.284Z,57.13
2018-10-06T16:03:51.590Z,56.74
2018-10-06T16:06:03.843Z,57.21
2018-10-06T16:08:16.039Z,57.68
2018-10-06T16:10:28.242Z,57.51
2018-10-06T16:12:40.541Z,57.74
2018-10-06T16:14:52.929Z,57.69
2018-10-06T16:17:05.126Z,57.88
2018-10-06T16:19:17.382Z,58.06
2018-10-06T16:21:29.683Z,58.07
2018-10-06T16:23:41.864Z,58.53
2018-10-06T16:25:54.115Z,58.50
2018-10-06T16:28:06.394Z,58.99
2018-10-06T16:30:18.688Z,59.42
2018-10-06T16:32:30.949Z,59.40
2018-10-06T16:34:43.217Z,59.75
2018-10-06T16:36:55.475Z,60.31
2018-10-06T16:39:07.834Z,60.69
2018-10-06T16:41:20.418Z,60.79
2018-10-06T16:43:32.657Z,60.69
2018-10-06T16:45:44.986Z,60.75
2018-10-06T16:47:57.260Z,60.33
2018-10-06T16:50:09.599Z,60.08
2018-10-06T16:52:21.909Z,60.74
2018-10-06T16:54:34.401Z,60.82
2018-10-06T16:56:46.666Z,61.77
2018-10-06T16:58:59.022Z,62.07
2018-10-06T17:01:11.255Z,62.19
2018-10-06T17:03:23.546Z,61.89
2018-10-06T17:05:35.778Z,62.60
2018-10-06T17:07:48.082Z,62.84
2018-10-06T17:10:00.303Z,62.81
2018-10-06T17:12:12.586Z,62.68
2018-10-06T17:14:24.819Z,63.34
2018-10-06T17:16:37.029Z,63.06
2018-10-06T17:18:49.424Z,62.96
2018-10-06T17:21:01.687Z,63.08
2018-10-06T17:23:13.936Z,63.39
2018-10-06T17:25:26.187Z,62.86
2018-10-06T17:27:38.544Z,63.49
2018-10-06T17:29:50.766Z,63.35
2018-10-06T17:32:03.089Z,64.02
2018-10-06T17:34:15.362Z,63.67
2018-10-06T17:36:27.711Z,64.55
2018-10-06T17:38:40.022Z,64.36
2018-10-06T17:40:52.310Z,64.56
2018-10-06T17:43:04.660Z,64.88
2018-10-06T17:45:16.871Z,64.83
2018-10-06T17:47:29.111Z,64.16
2018-10-06T17:49:41.424Z,65.22
2018-10-06T17:51:53.699Z,65.05
2018-10-06T17:54:05.992Z,64.46
2018-10-06T17:56:18.221Z,64.29
2018-10-06T17:58:30.497Z,65.40
2018-10-06T18:00:42.768Z,65.56
2018-10-06T18:02:55.025Z,65.74
2018-10-06T18:05:07.309Z,65.35
2018-10-06T18:07:19.608Z,66.12
2018-10-06T18:09:31.864Z,66.33
2018-10-06T18:11:44.115Z,66.28
2018-10-06T18:13:56.521Z,66.92
2018-10-06T18:16:08.799Z,66.08
2018-10-06T18:18:21.092Z,66.36
2018-10-06T18:20:33.498Z,66.97
2018-10-06T18:22:45.699Z,66.08
2018-10-06T18:24:58.008Z,66.49
2018-10-06T18:27:10.246Z,67.01
2018-10-06T18:29:22.632Z,67.29
2018-10-06T18:31:34.784Z,66.43
2018-10-06T18:33:47.019Z,67.36
2018-10-06T18:35:59.564Z,66.71
2018-10-06T18:38:11.783Z,66.84
2018-10-06T18:40:24.028Z,66.85
2018-10-06T18:42:36.321Z,66.94
2018-10-06T18:44:48.567Z,67.35
2018-10-06T18:47:00.805Z,67.79
2018-10-06T18:49:13.058Z,68.18
2018-10-06T18:51:25.324Z,68.50
2018-10-06T18:53:37.630Z,68.77
2018-10-06T18:55:49.911Z,68.70
2018-10-06T18:58:02.154Z,68.21
2018-10-06T19:00:14.374Z,67.87
2018-10-06T19:02:26.670Z,68.67
2018-10-06T19:04:38.942Z,68.33
2018-10-06T19:06:51.173Z,68.95
2018-10-06T19:09:04.425Z,68.22
2018-10-06T19:11:16.671Z,68.46
2018-10-06T19:13:28.909Z,69.31
2018-10-06T19:15:41.178Z,68.54
2018-10-06T19:17:53.419Z,69.45
2018-10-06T19:20:06.062Z,69.37
2018-10-06T19:22:18.407Z,69.19
2018-10-06T19:24:30.627Z,69.32
2018-10-06T19:26:42.871Z,69.96
2018-10-06T19:28:55.232Z,70.08
2018-10-06T19:31:07.494Z,69.51
2018-10-06T19:33:19.835Z,70.01
2018-10-06T19:35:32.159Z,70.34
2018-10-06T19:37:44.391Z,69.98
2018-10-06T19:39:56.704Z,70.75
2018-10-06T19:42:09.068Z,70.79
2018-10-06T19:44:21.317Z,70.77
2018-10-06T19:46:33.599Z,70.12
2018-10-06T19:48:45.887Z,70.22
2018-10-06T19:50:58.171Z,70.40
2018-10-06T19:53:10.463Z,71.47
2018-10-06T19:55:22.739Z,70.81
2018-10-06T19:57:34.992Z,72.09
2018-10-06T19:59:47.300Z,72.21
2018-10-06T20:01:59.570Z,72.01
2018-10-06T20:04:11.882Z,72.36
2018-10-06T20:06:24.266Z,71.57
2018-10-06T20:08:37.234Z,71.62
2018-10-06T20:10:49.582Z,71.33
2018-10-06T20:13:01.850Z,72.25
2018-10-06T20:15:14.107Z,71.77
2018-10-06T20:17:26.419Z,71.92
2018-10-06T20:19:38.656Z,72.68
2018-10-06T20:21:51.009Z,71.84
2018-10-06T20:24:03.265Z,72.36
2018-10-06T20:26:15.480Z,72.01
2018-10-06T20:28:27.800Z,72.84
2018-10-06T20:30:40.056Z,72.94
2018-10-06T20:32:52.340Z,73.57
2018-10-06T20:35:04.664Z,72.56
2018-10-06T20:37:16.910Z,72.69
2018-10-06T20:39:29.195Z,72.59
2018-10-06T20:41:41.464Z,73.01
2018-10-06T20:43:53.731Z,73.10
2018-10-06T20:46:06.152Z,73.13
2018-10-06T20:48:18.474Z,73.08
2018-10-06T20:50:30.778Z,73.84
2018-10-06T20:52:43.279Z,74.41
2018-10-06T20:54:55.546Z,73.71
2018-10-06T20:57:07.830Z,74.39
2018-10-06T20:59:20.024Z,74.43
2018-10-06T21:01:32.356Z,73.57
2018-10-06T21:03:44.575Z,74.20
2018-10-06T21:05:56.835Z,74.42
2018-10-06T21:08:09.087Z,74.00
2018-10-06T21:10:21.325Z,74.89
2018-10-06T21:12:33.607Z,74.15
2018-10-06T21:14:45.884Z,74.95
2018-10-06T21:16:58.205Z,74.63
2018-10-06T21:19:10.507Z,74.95
2018-10-06T21:21:22.755Z,74.91
2018-10-06T21:23:35.043Z,75.08
2018-10-06T21:25:47.369Z,74.94
2018-10-06T21:27:59.693Z,75.12
2018-10-06T21:30:11.951Z,74.53
2018-10-06T21:32:24.299Z,74.87
2018-10-06T21:34:36.793Z,74.84
2018-10-06T21:36:49.015Z,74.26
2018-10-06T21:39:01.298Z,74.49
2018-10-06T21:41:13.562Z,74.36
2018-10-06T21:43:25.856Z,75.22
2018-10-06T21:45:38.102Z,74.46
2018-10-06T21:47:50.467Z,75.24
2018-10-06T21:50:02.763Z,75.37
2018-10-06T21:52:14.984Z,74.31
2018-10-06T21:54:31.141Z,74.42
2018-10-06T21:56:43.466Z,75.47
2018-10-06T21:58:55.711Z,75.32
2018-10-06T22:01:11.047Z,75.58
2018-10-06T22:03:23.412Z,75.90
2018-10-06T22:05:35.689Z,75.68
2018-10-06T22:07:47.928Z,74.86
2018-10-06T22:10:00.164Z,74.86
2018-10-06T22:12:12.484Z,75.02
2018-10-06T22:14:24.744Z,75.46
2018-10-06T22:16:37.017Z,75.54
2018-10-06T22:18:49.276Z,75.91
2018-10-06T22:21:01.580Z,75.79
2018-10-06T22:23:13.886Z,75.55
2018-10-06T22:25:26.111Z,75.07
2018-10-06T22:27:38.421Z,74.91
2018-10-06T22:29:50.659Z,74.96
2018-10-06T22:32:02.969Z,75.91
2018-10-06T22:34:15.235Z,76.04
2018-10-06T22:36:27.511Z,75.34
2018-10-06T22:38:39.828Z,76.38
2018-10-06T22:40:52.163Z,76.46
2018-10-06T22:43:04.406Z,76.64
2018-10-06T22:45:16.621Z,76.85
2018-10-06T22:47:28.853Z,76.03
2018-10-06T22:49:41.063Z,76.77
2018-10-06T22:51:53.580Z,77.03
2018-10-06T22:54:05.873Z,77.09
2018-10-06T22:56:18.219Z,76.84
2018-10-06T22:58:30.467Z,76.42
2018-10-06T23:00:42.698Z,77.34
2018-10-06T23:02:54.939Z,76.37
2018-10-06T23:05:07.243Z,77.28
2018-10-06T23:07:19.535Z,77.38
2018-10-06T23:09:31.776Z,76.59
2018-10-06T23:11:44.005Z,76.57
2018-10-06T23:13:56.248Z,77.36
2018-10-06T23:16:08.512Z,77.43
2018-10-06T23:18:20.790Z,76.45
2018-10-06T23:20:33.080Z,77.29
2018-10-06T23:22:45.503Z,76.67
2018-10-06T23:24:57.734Z,76.90
2018-10-06T23:27:09.972Z,77.39
2018-10-06T23:29:22.240Z,77.12
2018-10-06T23:31:34.468Z,76.90
2018-10-06T23:33:46.744Z,77.87
2018-10-06T23:35:58.936Z,77.58
2018-10-06T23:38:11.230Z,77.39
2018-10-06T23:40:23.391Z,77.81
2018-10-06T23:42:35.734Z,77.14
2018-10-06T23:44:48.112Z,77.14
2018-10-06T23:47:00.395Z,77.24
2018-10-06T23:49:12.649Z,77.09
2018-10-06T23:51:24.983Z,77.79
2018-10-06T23:53:37.252Z,77.29
2018-10-06T23:55:49.480Z,77.30
2018-10-06T23:58:01.736Z,77.83
